createdAt,value
2023-03-31T06:02:46.909Z,2.13
2023-03-31T06:05:50.128Z,2.67
2023-03-31T06:08:52.849Z,2.50
2023-03-31T06:16:17.253Z,2.78
2023-03-31T06:19:20.050Z,2.03
2023-03-31T06:22:23.870Z,2.13
2023-03-31T06:25:29.224Z,2.40
2023-03-31T06:28:34.065Z,1.98
2023-03-31T06:31:38.947Z,2.05
2023-03-31T06:34:41.425Z,2.00
2023-03-31T06:37:43.853Z,2.40
2023-03-31T06:40:46.468Z,1.70
2023-03-31T06:43:49.110Z,2.13
2023-03-31T06:46:52.936Z,2.33
2023-03-31T06:49:55.572Z,2.10
2023-03-31T06:52:58.819Z,2.13
2023-03-31T06:56:01.694Z,1.73
2023-03-31T06:59:04.240Z,1.83
2023-03-31T07:02:08.565Z,1.88
2023-03-31T07:05:11.613Z,1.92
2023-03-31T07:08:14.146Z,1.52
2023-03-31T07:11:16.663Z,1.80
2023-03-31T07:14:19.292Z,2.47
2023-03-31T07:17:25.385Z,1.75
2023-03-31T07:20:27.939Z,1.60
2023-03-31T07:23:30.480Z,2.03
2023-03-31T07:26:33.217Z,2.25
2023-03-31T07:29:35.738Z,2.00
2023-03-31T07:32:40.173Z,1.85
2023-03-31T07:35:42.986Z,1.58
2023-03-31T07:38:49.076Z,2.05
2023-03-31T07:41:51.505Z,2.05
2023-03-31T07:44:54.021Z,1.67
2023-03-31T07:47:57.827Z,1.42
2023-03-31T07:51:00.489Z,1.90
2023-03-31T07:54:02.952Z,1.30
2023-03-31T07:57:06.314Z,1.92
2023-03-31T08:00:12.452Z,1.20
2023-03-31T08:03:16.529Z,1.58
2023-03-31T08:06:19.579Z,1.27
2023-03-31T08:09:22.730Z,1.23
2023-03-31T08:12:25.443Z,2.22
2023-03-31T08:15:28.079Z,1.45
2023-03-31T08:18:32.142Z,1.70
2023-03-31T08:21:34.597Z,1.42
2023-03-31T08:24:37.004Z,1.40
2023-03-31T08:27:41.140Z,1.77
2023-03-31T08:30:43.802Z,1.73
2023-03-31T08:33:48.301Z,1.90
2023-03-31T08:36:50.699Z,1.85
2023-03-31T08:39:53.257Z,1.50
2023-03-31T08:42:59.402Z,1.83
2023-03-31T08:46:04.479Z,1.95
2023-03-31T08:49:11.809Z,2.08
2023-03-31T08:52:18.426Z,1.65
2023-03-31T08:55:25.554Z,1.45
2023-03-31T08:58:39.365Z,1.85
2023-03-31T09:01:55.637Z,2.15
2023-03-31T09:05:29.057Z,1.63
2023-03-31T09:08:37.501Z,1.60
2023-03-31T09:11:48.805Z,1.60
2023-03-31T09:14:59.010Z,2.17
2023-03-31T09:18:18.060Z,1.55
2023-03-31T09:21:26.343Z,1.65
2023-03-31T09:24:32.764Z,2.00
2023-03-31T09:27:37.227Z,2.33
2023-03-31T09:30:42.230Z,1.65
2023-03-31T09:33:46.744Z,1.80
2023-03-31T09:36:50.786Z,1.40
2023-03-31T09:39:53.225Z,1.90
2023-03-31T09:42:59.654Z,1.80
2023-03-31T09:46:09.762Z,1.70
2023-03-31T09:49:16.356Z,2.00
2023-03-31T09:52:29.768Z,2.00
2023-03-31T09:55:42.947Z,1.40
2023-03-31T09:58:47.077Z,1.77
2023-03-31T10:01:53.717Z,1.70
2023-03-31T10:04:56.663Z,1.40
2023-03-31T10:08:20.171Z,1.50
2023-03-31T10:11:23.451Z,1.60
2023-03-31T10:14:28.929Z,1.88
2023-03-31T10:17:43.562Z,2.20
2023-03-31T10:20:54.836Z,1.80
2023-03-31T10:24:01.292Z,2.28
2023-03-31T10:27:06.934Z,2.25
2023-03-31T10:30:12.902Z,1.75
2023-03-31T10:33:23.213Z,2.10
2023-03-31T10:36:29.160Z,1.70
2023-03-31T10:39:33.754Z,1.90
2023-03-31T10:42:36.595Z,1.88
2023-03-31T10:45:44.167Z,1.85
2023-03-31T10:48:47.013Z,2.03
2023-03-31T10:51:51.270Z,1.27
2023-03-31T10:54:59.175Z,1.33
2023-03-31T10:58:06.871Z,1.58
2023-03-31T11:01:23.652Z,1.92
2023-03-31T11:04:43.791Z,1.58
2023-03-31T11:08:00.174Z,1.83
2023-03-31T11:11:27.950Z,2.17
2023-03-31T11:14:46.150Z,2.08
2023-03-31T11:18:02.569Z,1.88
2023-03-31T11:21:17.946Z,2.45
2023-03-31T11:24:33.902Z,1.90
2023-03-31T11:27:55.491Z,2.15
2023-03-31T11:31:11.436Z,1.88
2023-03-31T11:34:44.312Z,2.35
2023-03-31T11:38:05.334Z,2.25
2023-03-31T11:41:12.229Z,2.30
2023-03-31T11:44:19.586Z,1.92
2023-03-31T11:47:26.007Z,1.80
2023-03-31T11:50:32.650Z,1.77
2023-03-31T11:53:38.256Z,1.88
2023-03-31T11:56:42.089Z,2.13
2023-03-31T11:59:54.957Z,1.88
2023-03-31T12:03:04.480Z,2.15
2023-03-31T12:06:17.172Z,2.67
2023-03-31T12:09:26.524Z,2.05
2023-03-31T12:12:31.673Z,2.38
2023-03-31T12:15:40.607Z,1.95
2023-03-31T12:18:48.860Z,1.77
2023-03-31T12:21:53.985Z,2.08
2023-03-31T12:24:56.610Z,1.38
2023-03-31T12:28:00.444Z,1.58
2023-03-31T12:31:07.608Z,1.17
2023-03-31T12:34:14.824Z,1.48
2023-03-31T12:37:58.634Z,1.60
2023-03-31T12:41:11.691Z,1.35
2023-03-31T12:44:37.027Z,1.35
2023-03-31T12:47:59.101Z,1.25
2023-03-31T12:51:15.331Z,1.10
2023-03-31T12:54:35.685Z,1.17
2023-03-31T12:57:38.217Z,1.52
2023-03-31T13:01:07.693Z,1.30
2023-03-31T13:04:21.232Z,0.70
2023-03-31T13:07:40.439Z,0.82
2023-03-31T13:10:57.382Z,1.00
2023-03-31T13:14:02.894Z,1.40
2023-03-31T13:17:21.894Z,1.30
2023-03-31T13:20:38.081Z,1.55
2023-03-31T13:23:47.247Z,1.45
2023-03-31T13:26:50.085Z,1.70
2023-03-31T13:29:52.499Z,1.85
2023-03-31T13:33:06.134Z,1.52
2023-03-31T13:36:51.141Z,1.50
2023-03-31T13:40:20.189Z,1.55
2023-03-31T13:43:55.495Z,1.35
2023-03-31T13:47:17.662Z,1.10
2023-03-31T13:50:50.783Z,0.88
2023-03-31T13:54:29.250Z,1.00
2023-03-31T13:57:57.704Z,1.00
2023-03-31T14:01:19.014Z,1.20
2023-03-31T14:04:52.577Z,1.13
2023-03-31T14:07:59.657Z,1.13
2023-03-31T14:11:18.191Z,0.90
2023-03-31T14:14:20.654Z,1.20
2023-03-31T14:17:27.628Z,1.23
2023-03-31T14:20:37.046Z,0.70
2023-03-31T14:23:50.608Z,0.68
2023-03-31T14:27:01.590Z,0.80
2023-03-31T14:30:13.907Z,0.73
2023-03-31T14:33:34.221Z,0.70
2023-03-31T14:36:46.748Z,0.40
2023-03-31T14:39:54.994Z,0.70
2023-03-31T14:42:57.595Z,0.45
2023-03-31T14:46:01.745Z,0.73
2023-03-31T14:49:08.335Z,0.40
2023-03-31T14:52:16.771Z,0.70
2023-03-31T14:55:31.659Z,0.50
2023-03-31T14:58:45.755Z,0.63
2023-03-31T15:01:50.111Z,0.77
2023-03-31T15:04:52.995Z,0.60
2023-03-31T15:07:58.639Z,0.75
2023-03-31T15:14:13.750Z,0.70
2023-03-31T15:17:21.548Z,0.75
2023-03-31T15:20:32.099Z,0.90
2023-03-31T15:23:41.492Z,0.80
2023-03-31T15:26:50.867Z,0.90
2023-03-31T15:29:57.222Z,0.88
2023-03-31T15:33:11.706Z,0.90
2023-03-31T15:36:18.513Z,1.05
2023-03-31T15:39:21.517Z,1.15
2023-03-31T15:42:26.238Z,0.90
2023-03-31T15:45:46.272Z,1.58
2023-03-31T15:48:54.632Z,1.10
2023-03-31T15:52:00.421Z,0.85
2023-03-31T15:55:23.395Z,1.10
2023-03-31T15:58:48.395Z,1.15
2023-03-31T16:01:51.934Z,1.30
2023-03-31T16:04:59.251Z,0.95
2023-03-31T16:08:02.775Z,2.05
2023-03-31T16:11:11.075Z,1.75
2023-03-31T16:14:19.985Z,1.58
2023-03-31T16:17:29.785Z,1.00
2023-03-31T16:20:37.071Z,0.90
2023-03-31T16:23:41.734Z,1.20
2023-03-31T16:26:44.658Z,0.95
2023-03-31T16:29:48.512Z,1.23
2023-03-31T16:33:02.682Z,1.10
2023-03-31T16:36:05.989Z,1.10
2023-03-31T16:39:08.994Z,0.98
2023-03-31T16:42:11.587Z,1.10
2023-03-31T16:45:15.561Z,0.68
2023-03-31T16:48:19.622Z,1.65
2023-03-31T16:51:23.331Z,0.77
2023-03-31T16:54:26.388Z,0.90
2023-03-31T16:57:29.194Z,1.05
2023-03-31T17:00:35.634Z,1.13
2023-03-31T17:03:41.579Z,1.10
2023-03-31T17:06:44.889Z,1.10
2023-03-31T17:09:47.405Z,1.17
2023-03-31T17:12:49.902Z,1.00
2023-03-31T17:19:18.146Z,1.50
2023-03-31T17:22:20.851Z,1.23
2023-03-31T18:34:39.118Z,1.92
2023-03-31T18:37:41.608Z,1.10
2023-03-31T18:40:48.806Z,1.20
2023-03-31T18:43:52.231Z,1.25
2023-03-31T18:46:54.763Z,0.93
2023-03-31T18:49:58.623Z,1.20
2023-03-31T18:53:01.130Z,1.10
2023-03-31T18:56:03.626Z,1.40
2023-03-31T18:59:06.176Z,1.05
2023-03-31T19:02:08.707Z,1.17
2023-03-31T19:05:12.629Z,1.35
2023-03-31T19:08:15.151Z,1.40
2023-03-31T19:11:18.056Z,1.45
2023-03-31T19:14:20.841Z,1.42
